• Join FlightAware (Why Join?)
  • Login
  • US Flag 
09:06AM EDT


 

Airport Tracker/Info


-or-


 

Live Flight TrackerFlight Track Log ✈ SWA385 ✈ 11-May-2013 ✈ KALB - KBWI

Flight Track Log - Related Links

Times and Time Zones

All times are in EDT time to prevent confusion due to time zone crossing. See the SWA385 flight status page for this flight to view local times or setup timezone preferences in your user account.

Time Position Orientation Groundspeed Altitude Reporting Facility
EDT Latitude Longitude Course Direction KTS MPH feet Rate Location/Type
08:44AM 42.7339 -73.8081 212° Southwest 141 162 1,300  Level Boston Center
08:45AM 42.7108 -73.8275 212° Southwest 166 191 2,600 2,760 Climbing Boston Center
08:46AM 42.7744 -73.9081 317° Northwest 259 298 7,300 3,420 Climbing Boston Center
08:47AM 42.7983 -73.9964 290° West 247 284 11,000 3,720 Climbing Boston Center
08:48AM 42.8114 -74.0986 280° West 257 296 14,800 3,480 Climbing Boston Center
08:49AM 42.7647 -74.1539 221° Southwest 248 285 18,000 2,760 Climbing Boston Center
08:50AM 42.6672 -74.1144 163° South 221 254 20,400 2,640 Climbing Boston Center
08:51AM 42.5703 -74.0556 156° South 309 356 23,300 2,940 Climbing Boston Center
08:52AM 42.4689 -73.9967 157° South 363 418 26,300 2,340 Climbing Boston Center
08:53AM 42.3675 -73.9378 157° South 375 432 28,000 840 Climbing Boston Center
08:54AM 42.2703 -73.8850 158° South 381 438 28,000  Level Boston Center
08:55AM 42.1731 -73.8294 157° South 386 444 28,000  Level Boston Center
08:56AM 42.0736 -73.7908 164° South 386 444 28,000  Level Boston Center
08:57AM 41.9692 -73.7944 181° South 372 428 28,000  Level Boston Center
08:59AM 41.8083 -73.8628 198° South 365 420 28,000  Level New York Center
09:00AM 41.7025 -73.9217 203° Southwest 393 452 28,000  Level New York Center
09:01AM 41.5969 -73.9778 202° Southwest 408 470 28,000  Level New York Center
09:02AM 41.4978 -74.0283 201° Southwest 403 464 28,000  Level New York Center
09:03AM 41.3942 -74.0869 203° Southwest 403 464 28,000  Level New York Center
09:04AM 41.2864 -74.1425 201° Southwest 403 464 28,000 -300 Level New York Center
09:05AM 41.1869 -74.1953 202° Southwest 403 464 27,500 -780 Descending New York Center
09:06AM 41.0897 -74.2425 200° South 403 464 26,500 -780 Descending New York Center
09:07AM 40.9925 -74.2925 201° Southwest 390 449 26,000 -300 Descending New York Center
09:08AM 40.8992 -74.3428 202° Southwest 380 437 26,000  Level New York Center
09:09AM 40.8019 -74.3925 201° Southwest 375 432 26,000  Level New York Center
09:10AM 40.7344 -74.4875 227° Southwest 364 419 26,000  Level New York Center
09:11AM 40.6728 -74.5908 232° Southwest 358 412 26,000  Level New York Center
09:12AM 40.6131 -74.6914 232° Southwest 363 418 26,000 -180 Level New York Center
09:13AM 40.5472 -74.7914 229° Southwest 363 418 25,700 -660 Descending New York Center
09:14AM 40.4794 -74.8856 227° Southwest 363 418 24,700 -1,140 Descending New York Center
09:15AM 40.4069 -74.9931 228° Southwest 368 423 23,500 -1,140 Descending New York Center
09:16AM 40.3389 -75.0842 226° Southwest 368 423 22,500 -1,020 Descending New York Center
09:17AM 40.2750 -75.1781 228° Southwest 356 410 21,500 -1,020 Descending New York Center
09:18AM 40.2114 -75.2664 227° Southwest 350 403 20,500 -1,020 Descending New York Center
09:19AM 40.1517 -75.3522 228° Southwest 339 390 19,500 -780 Descending New York Center
09:20AM 40.0903 -75.4322 225° Southwest 339 390 19,000 -300 Descending New York Center
09:21AM 40.0239 -75.5256 227° Southwest 334 384 19,000  Level New York Center
09:22AM 39.9667 -75.6028 226° Southwest 334 384 19,000  Level New York Center
09:23AM 39.9019 -75.7011 229° Southwest 334 384 19,000 -360 Level New York Center
09:24AM 39.8567 -75.7872 236° Southwest 334 384 18,400 -1,680 Descending New York Center
09:26AM 39.7500 -76.0000 237° Southwest 302 348 13,700 -1,980 Descending Potomac TRACON
09:27AM 39.7000 -76.0833 232° Southwest 288 331 12,200 -1,200 Descending Potomac TRACON
09:28AM 39.6667 -76.1667 243° Southwest 270 311 11,500 -900 Descending Potomac TRACON
09:29AM 39.6000 -76.2167 210° Southwest 262 302 10,400 -1,020 Descending Potomac TRACON
09:30AM 39.5500 -76.2833 226° Southwest 255 293 9,500 -1,020 Descending Potomac TRACON
09:31AM 39.5000 -76.3333 218° Southwest 247 284 8,500 -1,020 Descending Potomac TRACON
09:32AM 39.4500 -76.3833 218° Southwest 247 284 7,600 -1,320 Descending Potomac TRACON
09:33AM 39.3833 -76.4333 210° Southwest 251 289 6,100 -1,620 Descending Potomac TRACON
09:34AM 39.3167 -76.4333 180° South 257 296 4,400 -1,140 Descending Potomac TRACON
09:35AM 39.2500 -76.4333 180° South 251 289 4,000 -240 Descending Potomac TRACON
09:36AM 39.1833 -76.4500 191° South 240 276 4,000 -120 Level Potomac TRACON
09:36AM 39.1500 -76.4833 218° Southwest 163 188 3,800 -840 Descending Potomac TRACON
09:37AM 39.1333 -76.5333 247° West 135 155 2,500 -1,080 Descending Potomac TRACON
09:38AM 39.1333 -76.5833 270° West 127 146 1,700 -720 Descending Potomac TRACON
09:39AM 39.1333 -76.6167 270° West 121 139 1,100 -720 Descending Potomac TRACON
09:40AM 39.1500 -76.6500 303° West 138 159 400 -780 Descending Potomac TRACON
09:42AM 39.1667 -76.6667 270° West  Level FlightAware Approximate
09:49AM 39.1754 -76.6683 270° West  Level Estimated
09:50AM 39.1754 -76.6683 270° West  Level Estimated
09:51AM 39.1754 -76.6683 270° West  Level Estimated